Terminal Aerodrome Forecast
Issued by NWS

Home | Current Version | Previous Version | Text Only | Print | Product List | Glossary On
Versions: 1 2 3 4 5 6 7 8 9 10 11 12 13 14 15
000
FTUS46 KMFR 191300 AAA
TAFRBG
TAF AMD
KRBG 191322Z 1913/2012 00000KT P6SM BKN004
     FM191600 00000KT P6SM SCT006
     FM191800 01004KT P6SM SKC
     FM192200 01011KT P6SM SKC
     FM200400 VRB03KT P6SM SKC=

USA.gov is the U.S. government's official web portal to all federal, state and local government web resources and services.